Terminal Aerodrome Forecast
Issued by NWS

Home | Current Version | Previous Version | Text Only | Print | Product List | Glossary On
Versions: 1 2 3 4 5 6 7 8 9 10 11 12 13 14
000
FTUS42 KMHX 292343
TAFOAJ
TAF
KOAJ 292343Z 3000/3024 18005KT P6SM BKN060
     FM300200 VRB04KT P6SM VCTS BKN060CB
      TEMPO 3005/3008 4SM TSRA BKN025CB OVC040
     FM300900 VRB04KT P6SM SCT025 BKN060
     FM301700 26007KT P6SM VCSH BKN100
      AMD LTD TO CLD VIS AND WIND=

USA.gov is the U.S. government's official web portal to all federal, state and local government web resources and services.